aviador You're here:

RKTU Decoded Metar

CHONGJU in KOREA
Report Time2017-09-25 20:00:00
UTC Time2017-09-25 20:30:42
Flight Rules ifr IFR
Wind080° at 02 kt
W.Decomp.*RWY 06: 1.8 kt HW 0.9 kt RCW
W.Rank080° ranks 13
Current wind is below 080° avg. (3.0)
Visibility4800 m
Phenomena:Mist
Clouds:N/A
Expected CloudBase > 400 ft AGL from Temp-Dew spread
CeilingNone
Temp15°C (ISA 0)
Dew Point14°C (94% RH)
QNH1013 hPa
Density Alt482 ft
Elevation217 ft
Report Wrong Elevation
Raw Report
METAR RKTU 252000Z 08002KT 4800 BR NSC 15/14 Q1013 NOSIG=####018000118####
SPUS17 KAWN 252018 RRB

Extra information for RKTU:More info

Metar Taf Metar & Taf Last 4 Metars F.Rules Stats Wind Profile Meteogram Temp Stats Airport Information Weather charts Add Link Nearby VenuesMetar ALERT Operation Metar Decoded Social comments